createdAt,value
2019-05-14T00:01:03.168Z,6.08
2019-05-14T00:02:37.709Z,5.50
2019-05-14T00:04:12.516Z,5.42
2019-05-14T00:05:46.720Z,6.12
2019-05-14T00:07:22.400Z,5.65
2019-05-14T00:08:56.993Z,6.22
2019-05-14T00:10:32.305Z,5.47
2019-05-14T00:12:07.013Z,5.50
2019-05-14T00:13:41.764Z,5.30
2019-05-14T00:15:16.592Z,5.62
2019-05-14T00:16:51.494Z,5.65
2019-05-14T00:18:25.713Z,5.92
2019-05-14T00:20:07.207Z,5.28
2019-05-14T00:21:38.039Z,5.03
2019-05-14T00:23:12.844Z,5.83
2019-05-14T00:24:47.048Z,5.72
2019-05-14T00:26:21.816Z,5.30
2019-05-14T00:27:56.615Z,5.70
2019-05-14T00:29:32.599Z,5.28
2019-05-14T00:31:06.807Z,5.50
2019-05-14T00:32:41.647Z,5.60
2019-05-14T00:34:16.112Z,6.28
2019-05-14T00:35:51.472Z,5.47
2019-05-14T00:37:25.988Z,6.10
2019-05-14T00:39:01.839Z,6.20
2019-05-14T00:40:36.524Z,6.03
2019-05-14T00:42:13.904Z,6.35
2019-05-14T00:43:51.341Z,5.85
2019-05-14T00:45:25.992Z,5.92
2019-05-14T00:47:02.183Z,5.83
2019-05-14T00:48:36.788Z,6.12
2019-05-14T00:50:11.674Z,6.03
2019-05-14T00:51:46.520Z,5.53
2019-05-14T00:53:21.474Z,6.53
2019-05-14T00:54:56.560Z,6.45
2019-05-14T00:56:32.124Z,6.55
2019-05-14T00:58:07.081Z,6.33
2019-05-14T00:59:42.292Z,6.58
2019-05-14T01:01:17.052Z,6.97
2019-05-14T01:02:51.909Z,6.58
2019-05-14T01:04:27.152Z,7.10
2019-05-14T01:06:02.957Z,6.47
2019-05-14T01:07:37.890Z,6.20
2019-05-14T01:09:14.148Z,7.28
2019-05-14T01:10:50.968Z,6.97
2019-05-14T01:12:25.072Z,6.33
2019-05-14T01:14:01.661Z,6.60
2019-05-14T01:15:35.687Z,6.90
2019-05-14T01:17:11.246Z,6.45
2019-05-14T01:18:46.105Z,7.20
2019-05-14T01:20:21.332Z,7.03
2019-05-14T01:21:55.577Z,7.72
2019-05-14T01:23:32.369Z,7.72
2019-05-14T01:25:06.759Z,7.03
2019-05-14T01:26:41.711Z,8.28
2019-05-14T01:28:16.098Z,7.40
2019-05-14T01:29:51.434Z,7.17
2019-05-14T01:31:26.228Z,8.10
2019-05-14T01:33:01.782Z,8.08
2019-05-14T01:34:36.284Z,7.35
2019-05-14T01:36:12.321Z,7.42
2019-05-14T01:37:46.747Z,7.25
2019-05-14T01:39:21.688Z,8.00
2019-05-14T01:40:55.937Z,7.92
2019-05-14T01:42:32.104Z,8.28
2019-05-14T01:44:06.648Z,7.37
2019-05-14T01:45:41.785Z,7.10
2019-05-14T01:47:17.899Z,8.23
2019-05-14T01:48:52.670Z,7.87
2019-05-14T01:50:27.081Z,7.53
2019-05-14T01:52:01.973Z,7.70
2019-05-14T01:53:36.192Z,7.35
2019-05-14T01:55:12.067Z,7.87
2019-05-14T01:56:46.459Z,7.70
2019-05-14T01:58:22.076Z,7.62
2019-05-14T01:59:56.605Z,8.40
2019-05-14T02:01:31.675Z,7.12
2019-05-14T02:03:06.384Z,7.22
2019-05-14T02:04:43.029Z,7.53
2019-05-14T02:06:18.176Z,7.62
2019-05-14T02:07:52.774Z,8.45
2019-05-14T02:09:27.296Z,8.25
2019-05-14T02:11:02.136Z,7.42
2019-05-14T02:12:37.986Z,8.73
2019-05-14T02:14:14.117Z,8.10
2019-05-14T02:15:48.640Z,7.67
2019-05-14T02:17:23.406Z,8.00
2019-05-14T02:18:57.753Z,6.95
2019-05-14T02:20:32.514Z,7.85
2019-05-14T02:22:06.837Z,7.28
2019-05-14T02:23:42.043Z,7.12
2019-05-14T02:25:16.573Z,7.28
2019-05-14T02:26:51.584Z,7.65
2019-05-14T02:28:31.522Z,8.35
2019-05-14T02:30:09.368Z,7.50
2019-05-14T02:31:43.931Z,7.92
2019-05-14T02:33:19.262Z,8.50
2019-05-14T02:34:54.413Z,8.23
2019-05-14T02:36:30.845Z,7.97
2019-05-14T02:38:06.205Z,7.80
2019-05-14T02:39:42.296Z,7.45
2019-05-14T02:41:19.597Z,7.67
2019-05-14T02:42:53.125Z,8.23
2019-05-14T02:44:29.876Z,7.53
2019-05-14T02:46:11.840Z,7.72
2019-05-14T02:47:41.015Z,8.25
2019-05-14T02:49:15.604Z,7.60
2019-05-14T02:50:50.007Z,7.87
2019-05-14T02:52:24.617Z,8.23
2019-05-14T02:53:59.449Z,8.13
2019-05-14T02:55:34.424Z,8.13
2019-05-14T02:57:10.789Z,8.75
2019-05-14T02:58:49.624Z,8.48
2019-05-14T03:00:22.523Z,8.13
2019-05-14T03:01:59.155Z,8.98
2019-05-14T03:03:33.169Z,11.40
2019-05-14T03:05:09.815Z,34.90
2019-05-14T03:06:44.797Z,31.45
2019-05-14T03:08:20.038Z,14.03
2019-05-14T03:09:54.684Z,10.13
2019-05-14T03:11:29.887Z,10.40
2019-05-14T03:13:04.666Z,8.50
2019-05-14T03:14:39.833Z,8.43
2019-05-14T03:16:26.130Z,9.08
2019-05-14T03:17:50.965Z,8.85
2019-05-14T03:19:25.836Z,8.70
2019-05-14T03:21:01.079Z,9.20
2019-05-14T03:22:46.350Z,8.70
2019-05-14T03:24:14.269Z,8.68
2019-05-14T03:25:49.428Z,9.30
2019-05-14T03:27:24.193Z,10.23
2019-05-14T03:29:00.102Z,12.20
2019-05-14T03:30:35.029Z,9.68
2019-05-14T03:32:12.899Z,8.93
2019-05-14T03:33:51.771Z,9.48
2019-05-14T03:35:24.758Z,9.28
2019-05-14T03:37:03.368Z,10.35
2019-05-14T03:38:35.118Z,10.13
2019-05-14T03:40:10.134Z,9.58
2019-05-14T03:41:44.524Z,9.75
2019-05-14T03:43:19.931Z,10.50
2019-05-14T03:44:55.204Z,9.20
2019-05-14T03:46:43.961Z,9.13
2019-05-14T03:48:05.941Z,8.83
2019-05-14T03:49:40.521Z,9.38
2019-05-14T03:51:15.165Z,8.23
2019-05-14T03:52:50.273Z,8.15
2019-05-14T03:54:24.691Z,8.68
2019-05-14T03:56:00.221Z,8.75
2019-05-14T03:57:34.988Z,9.35
2019-05-14T03:59:11.166Z,10.10
2019-05-14T04:00:54.199Z,9.38
2019-05-14T04:02:29.822Z,7.20
2019-05-14T04:04:04.836Z,8.48
2019-05-14T04:05:40.204Z,7.70
2019-05-14T04:07:15.453Z,6.87
2019-05-14T04:08:51.922Z,6.05
2019-05-14T04:10:29.829Z,5.85
2019-05-14T04:12:04.922Z,5.20
2019-05-14T04:13:41.376Z,5.75
2019-05-14T04:15:19.197Z,6.40
2019-05-14T04:17:05.475Z,6.60
2019-05-14T04:18:33.750Z,10.00
2019-05-14T04:20:09.473Z,9.18
2019-05-14T04:21:48.873Z,11.85
2019-05-14T04:23:24.994Z,12.18
2019-05-14T04:25:01.226Z,12.43
2019-05-14T04:26:56.132Z,12.15
2019-05-14T04:28:19.450Z,11.63
2019-05-14T04:29:54.667Z,11.22
2019-05-14T04:31:32.803Z,11.22
2019-05-14T04:33:10.775Z,7.85
2019-05-14T04:34:45.804Z,9.33
2019-05-14T04:36:20.154Z,9.23
2019-05-14T04:37:54.929Z,8.48
2019-05-14T04:39:30.745Z,6.10
2019-05-14T04:41:06.297Z,4.58
2019-05-14T04:42:40.720Z,3.40
2019-05-14T04:44:18.932Z,3.47
2019-05-14T04:45:53.176Z,4.80
2019-05-14T04:47:36.659Z,7.53
2019-05-14T04:49:04.173Z,8.45
2019-05-14T04:50:41.277Z,7.90
2019-05-14T04:52:15.485Z,8.23
2019-05-14T04:53:50.544Z,7.95
2019-05-14T04:55:25.449Z,8.05
2019-05-14T04:57:00.401Z,8.45
2019-05-14T04:58:36.086Z,6.45
2019-05-14T05:00:12.835Z,4.12
2019-05-14T05:01:49.338Z,4.05
2019-05-14T05:03:23.889Z,4.08
2019-05-14T05:04:59.426Z,2.40
2019-05-14T05:06:34.670Z,2.30
2019-05-14T05:08:13.409Z,1.72
2019-05-14T05:09:45.858Z,1.70
2019-05-14T05:11:21.495Z,1.60
2019-05-14T05:12:58.579Z,1.75
2019-05-14T05:14:32.950Z,4.80
2019-05-14T05:16:09.897Z,8.58
2019-05-14T05:17:48.559Z,8.50
2019-05-14T05:19:20.176Z,9.38
2019-05-14T05:20:54.493Z,7.35
2019-05-14T05:22:29.288Z,6.95
2019-05-14T05:24:03.542Z,6.30
2019-05-14T05:25:38.491Z,5.97
2019-05-14T05:27:13.376Z,5.47
2019-05-14T05:29:02.856Z,4.90
2019-05-14T05:30:29.475Z,4.42
2019-05-14T05:32:03.913Z,2.95
2019-05-14T05:33:38.560Z,2.33
2019-05-14T05:35:14.597Z,2.15
2019-05-14T05:36:50.510Z,2.33
2019-05-14T05:38:25.268Z,1.80
2019-05-14T05:39:59.752Z,1.90
2019-05-14T05:41:34.559Z,1.57
2019-05-14T05:43:09.019Z,2.02
2019-05-14T05:44:43.969Z,1.80
2019-05-14T05:46:19.264Z,1.82
2019-05-14T05:47:58.185Z,1.50
2019-05-14T05:49:30.264Z,1.55
2019-05-14T05:51:05.502Z,1.60
2019-05-14T05:52:41.415Z,1.95
2019-05-14T05:54:18.355Z,2.35
2019-05-14T05:55:53.541Z,2.00
2019-05-14T05:57:28.537Z,1.70
2019-05-14T05:59:03.156Z,1.90
2019-05-14T06:00:40.466Z,1.70
2019-05-14T06:02:15.190Z,1.47
2019-05-14T06:03:49.961Z,1.40
2019-05-14T06:05:24.281Z,1.50
2019-05-14T06:07:02.207Z,1.25
2019-05-14T06:08:34.988Z,1.30
2019-05-14T06:10:09.954Z,1.40
2019-05-14T06:11:44.413Z,1.30
2019-05-14T06:13:19.650Z,1.35
2019-05-14T06:14:53.854Z,1.72
2019-05-14T06:16:29.038Z,1.82
2019-05-14T06:18:17.060Z,1.60
2019-05-14T06:19:41.998Z,1.40
2019-05-14T06:21:19.019Z,1.70
2019-05-14T06:22:54.208Z,1.65
2019-05-14T06:24:28.676Z,1.30
2019-05-14T06:26:03.385Z,1.72
2019-05-14T06:27:38.012Z,1.75
2019-05-14T06:29:13.500Z,1.50
2019-05-14T06:30:48.507Z,1.77
2019-05-14T06:32:25.773Z,1.72
2019-05-14T06:34:00.052Z,2.08
2019-05-14T06:35:34.835Z,1.95
2019-05-14T06:37:09.166Z,1.80
2019-05-14T06:38:43.948Z,1.65
2019-05-14T06:40:19.314Z,1.92
2019-05-14T06:41:54.376Z,1.80
2019-05-14T06:43:29.039Z,1.77
2019-05-14T06:45:04.381Z,2.40
2019-05-14T06:46:39.110Z,2.30
2019-05-14T06:48:27.038Z,2.02
2019-05-14T06:49:51.828Z,2.22
2019-05-14T06:51:28.857Z,2.58
2019-05-14T06:53:02.532Z,2.40
2019-05-14T06:54:38.718Z,2.20
2019-05-14T06:56:13.469Z,2.70
2019-05-14T06:57:48.809Z,2.62
2019-05-14T06:59:24.460Z,2.72
2019-05-14T07:01:00.617Z,2.92
2019-05-14T07:02:35.225Z,3.15
2019-05-14T07:04:10.025Z,3.05
2019-05-14T07:05:44.228Z,2.80
2019-05-14T07:07:20.669Z,3.20
2019-05-14T07:08:58.861Z,3.00
2019-05-14T07:10:35.113Z,3.65
2019-05-14T07:12:09.389Z,2.65
2019-05-14T07:13:44.156Z,3.62
2019-05-14T07:15:19.368Z,3.40
2019-05-14T07:16:58.603Z,3.37
2019-05-14T07:18:45.443Z,3.42
2019-05-14T07:20:10.420Z,3.35
2019-05-14T07:21:48.947Z,3.40
2019-05-14T07:23:22.957Z,3.90
2019-05-14T07:24:58.834Z,4.17
2019-05-14T07:26:35.042Z,4.35
2019-05-14T07:28:09.493Z,4.60
2019-05-14T07:29:44.365Z,5.58
2019-05-14T07:31:18.865Z,5.62
2019-05-14T07:32:53.839Z,6.45
2019-05-14T07:34:28.573Z,6.53
2019-05-14T07:36:03.379Z,6.80
2019-05-14T07:37:39.699Z,7.22
2019-05-14T07:39:14.006Z,7.45
2019-05-14T07:40:49.433Z,8.18
2019-05-14T07:42:24.674Z,9.15
2019-05-14T07:43:59.020Z,9.28
2019-05-14T07:45:33.881Z,12.75
2019-05-14T07:47:08.486Z,10.65
2019-05-14T07:48:43.432Z,9.60
2019-05-14T07:50:19.702Z,13.18
2019-05-14T07:51:54.736Z,7.42
2019-05-14T07:53:38.642Z,9.78
2019-05-14T07:55:09.240Z,7.40
2019-05-14T07:56:43.636Z,6.95
2019-05-14T07:58:19.512Z,6.22
2019-05-14T07:59:54.237Z,6.87
2019-05-14T08:01:29.116Z,6.67
2019-05-14T08:03:03.326Z,7.42
2019-05-14T08:04:38.246Z,6.35
2019-05-14T08:06:12.923Z,5.90
2019-05-14T08:07:48.135Z,7.70
2019-05-14T08:09:22.485Z,6.87
2019-05-14T08:10:59.158Z,8.13
2019-05-14T08:12:33.446Z,6.33
2019-05-14T08:14:09.058Z,5.35
2019-05-14T08:15:43.604Z,6.12
2019-05-14T08:17:19.055Z,6.40
2019-05-14T08:18:53.557Z,5.30
2019-05-14T08:20:28.649Z,5.97
2019-05-14T08:22:02.992Z,4.40
2019-05-14T08:23:39.196Z,4.22
2019-05-14T08:25:14.032Z,3.90
2019-05-14T08:26:48.819Z,3.42
2019-05-14T08:28:23.010Z,3.83
2019-05-14T08:29:58.918Z,4.72
2019-05-14T08:31:33.552Z,4.08
2019-05-14T08:33:09.095Z,3.77
2019-05-14T08:34:44.800Z,4.37
2019-05-14T08:36:20.097Z,4.12
2019-05-14T08:38:06.508Z,4.22
2019-05-14T08:39:30.732Z,4.80
2019-05-14T08:41:04.943Z,4.47
2019-05-14T08:42:40.098Z,4.80
2019-05-14T08:44:14.307Z,4.60
2019-05-14T08:45:49.081Z,5.20
2019-05-14T08:47:23.277Z,5.03
2019-05-14T08:48:58.724Z,4.42
2019-05-14T08:50:33.327Z,4.97
2019-05-14T08:52:08.841Z,4.35
2019-05-14T08:53:43.257Z,5.00
2019-05-14T08:55:18.540Z,4.90
2019-05-14T08:56:52.898Z,4.90
2019-05-14T08:58:30.066Z,5.12
2019-05-14T09:00:05.442Z,5.60
2019-05-14T09:01:55.960Z,5.65
2019-05-14T09:03:19.037Z,5.03
2019-05-14T09:04:54.789Z,5.08
2019-05-14T09:06:29.161Z,5.03
2019-05-14T09:08:04.121Z,6.33
2019-05-14T09:09:38.423Z,6.70
2019-05-14T09:11:14.255Z,7.30
2019-05-14T09:12:49.099Z,7.17
2019-05-14T09:14:24.642Z,6.20
2019-05-14T09:15:58.875Z,6.92
2019-05-14T09:17:33.457Z,6.87
2019-05-14T09:19:08.757Z,6.80
2019-05-14T09:20:44.038Z,5.65
2019-05-14T09:22:18.643Z,5.90
2019-05-14T09:23:53.620Z,5.83
2019-05-14T09:25:29.201Z,5.75
2019-05-14T09:27:05.558Z,6.45
2019-05-14T09:28:39.861Z,6.75
2019-05-14T09:30:14.501Z,5.67
2019-05-14T09:31:49.428Z,6.53
2019-05-14T09:33:24.976Z,6.62
2019-05-14T09:34:59.688Z,6.00
2019-05-14T09:36:34.459Z,8.38
2019-05-14T09:38:09.082Z,8.15
2019-05-14T09:39:46.117Z,8.85
2019-05-14T09:41:20.855Z,7.58
2019-05-14T09:42:58.496Z,7.25
2019-05-14T09:44:31.488Z,8.10
2019-05-14T09:46:08.784Z,7.58
2019-05-14T09:47:42.240Z,7.65
2019-05-14T09:49:18.738Z,8.20
2019-05-14T09:50:53.376Z,8.63
2019-05-14T09:52:29.277Z,8.25
2019-05-14T09:54:04.406Z,9.05
2019-05-14T09:55:39.189Z,8.98
2019-05-14T09:57:13.416Z,7.15
2019-05-14T09:58:49.636Z,7.58
2019-05-14T10:00:24.611Z,7.22
2019-05-14T10:02:00.865Z,6.72
2019-05-14T10:03:35.129Z,7.00
2019-05-14T10:05:10.667Z,6.75
2019-05-14T10:06:44.909Z,6.40
2019-05-14T10:08:19.672Z,5.72
2019-05-14T10:09:53.892Z,5.97
2019-05-14T10:11:29.132Z,5.53
2019-05-14T10:13:03.366Z,6.55
2019-05-14T10:14:39.302Z,6.00
2019-05-14T10:16:14.044Z,5.60
2019-05-14T10:17:50.053Z,6.53
2019-05-14T10:19:24.393Z,5.28
2019-05-14T10:20:59.221Z,4.70
2019-05-14T10:22:33.500Z,4.30
2019-05-14T10:24:09.313Z,4.33
2019-05-14T10:25:43.743Z,4.67
2019-05-14T10:27:18.941Z,4.67
2019-05-14T10:28:53.368Z,4.97
2019-05-14T10:30:28.704Z,4.28
2019-05-14T10:32:03.241Z,4.05
2019-05-14T10:33:37.776Z,4.40
2019-05-14T10:35:12.620Z,4.30
2019-05-14T10:36:47.831Z,4.15
2019-05-14T10:38:22.044Z,3.72
2019-05-14T10:39:58.588Z,3.60
2019-05-14T10:41:32.769Z,4.00
2019-05-14T10:43:09.085Z,5.22
2019-05-14T10:44:43.552Z,4.60
2019-05-14T10:46:19.306Z,3.47
2019-05-14T10:47:55.540Z,3.47
2019-05-14T10:49:30.608Z,4.05
2019-05-14T10:51:04.812Z,3.80
2019-05-14T10:52:40.922Z,3.75
2019-05-14T10:54:22.256Z,4.10
2019-05-14T10:55:52.360Z,3.98
2019-05-14T10:57:28.835Z,4.17
2019-05-14T10:59:02.985Z,4.17
2019-05-14T11:00:41.587Z,3.58
2019-05-14T11:02:14.021Z,3.92
2019-05-14T11:03:48.513Z,4.40
2019-05-14T11:05:23.280Z,4.40
2019-05-14T11:06:58.341Z,4.67
2019-05-14T11:08:33.560Z,4.20
2019-05-14T11:10:09.220Z,4.12
2019-05-14T11:11:44.248Z,4.10
2019-05-14T11:13:19.172Z,4.60
2019-05-14T11:14:54.242Z,4.42
2019-05-14T11:16:28.554Z,4.45
2019-05-14T11:18:03.308Z,4.15
2019-05-14T11:19:38.950Z,5.12
2019-05-14T11:21:24.874Z,4.87
2019-05-14T11:22:50.011Z,4.47
2019-05-14T11:24:24.760Z,5.05
2019-05-14T11:25:59.068Z,4.47
2019-05-14T11:27:34.148Z,4.58
2019-05-14T11:29:08.372Z,4.70
2019-05-14T11:30:43.217Z,4.37
2019-05-14T11:32:18.406Z,4.33
2019-05-14T11:33:54.055Z,4.83
2019-05-14T11:35:28.789Z,4.87
2019-05-14T11:37:04.028Z,4.55
2019-05-14T11:38:38.248Z,4.50
2019-05-14T11:40:14.273Z,4.12
2019-05-14T11:41:49.232Z,5.20
2019-05-14T11:43:24.262Z,4.55
2019-05-14T11:44:58.540Z,5.05
2019-05-14T11:46:43.610Z,5.25
2019-05-14T11:48:10.835Z,5.25
2019-05-14T11:49:45.803Z,5.45
2019-05-14T11:51:53.103Z,5.12
2019-05-14T11:52:59.436Z,5.12
2019-05-14T11:54:33.645Z,4.60
2019-05-14T11:56:08.812Z,5.25
2019-05-14T11:57:44.611Z,4.70
2019-05-14T11:59:19.627Z,4.55
2019-05-14T12:00:53.830Z,5.20
2019-05-14T12:02:30.056Z,4.87
2019-05-14T12:04:04.268Z,4.78
2019-05-14T12:05:39.543Z,5.12
2019-05-14T12:07:13.804Z,4.10
2019-05-14T12:08:48.624Z,3.95
2019-05-14T12:10:23.547Z,4.40
2019-05-14T12:11:59.639Z,4.00
2019-05-14T12:13:33.850Z,4.03
2019-05-14T12:15:09.948Z,3.75
2019-05-14T12:16:44.162Z,4.00
2019-05-14T12:18:18.951Z,3.98
2019-05-14T12:19:53.140Z,4.05
2019-05-14T12:21:29.063Z,3.70
2019-05-14T12:23:03.282Z,3.20
2019-05-14T12:24:38.740Z,3.42
2019-05-14T12:26:13.285Z,3.50
2019-05-14T12:27:49.589Z,3.92
2019-05-14T12:29:23.965Z,3.15
2019-05-14T12:30:59.053Z,3.83
2019-05-14T12:32:33.294Z,3.62
2019-05-14T12:34:08.063Z,3.83
2019-05-14T12:35:42.273Z,3.15
2019-05-14T12:37:18.601Z,3.08
2019-05-14T12:38:53.258Z,3.20
2019-05-14T12:40:28.867Z,3.60
2019-05-14T12:42:03.326Z,3.58
2019-05-14T12:43:39.663Z,3.60
2019-05-14T12:45:18.807Z,3.20
2019-05-14T12:46:52.127Z,3.95
2019-05-14T12:48:26.341Z,3.50
2019-05-14T12:50:01.332Z,3.33
2019-05-14T12:51:39.405Z,3.30
2019-05-14T12:53:12.013Z,3.55
2019-05-14T12:54:46.281Z,3.50
2019-05-14T12:56:21.319Z,4.10
2019-05-14T12:57:55.577Z,3.42
2019-05-14T12:59:30.351Z,3.30
2019-05-14T13:01:04.561Z,3.20
2019-05-14T13:02:39.473Z,4.05
2019-05-14T13:04:13.734Z,3.55
2019-05-14T13:05:49.095Z,3.58
2019-05-14T13:07:23.873Z,3.83
2019-05-14T13:08:59.007Z,3.60
2019-05-14T13:10:33.253Z,3.92
2019-05-14T13:12:11.201Z,3.98
2019-05-14T13:13:44.040Z,3.90
2019-05-14T13:15:20.283Z,4.37
2019-05-14T13:16:54.870Z,4.37
2019-05-14T13:18:30.138Z,3.85
2019-05-14T13:20:13.172Z,3.80
2019-05-14T13:21:43.520Z,3.35
2019-05-14T13:23:18.440Z,3.80
2019-05-14T13:24:53.370Z,3.80
2019-05-14T13:26:29.702Z,3.90
2019-05-14T13:28:04.585Z,4.00
2019-05-14T13:29:38.806Z,4.25
2019-05-14T13:31:13.583Z,4.30
2019-05-14T13:32:49.078Z,4.20
2019-05-14T13:34:24.570Z,4.22
2019-05-14T13:35:59.557Z,4.30
2019-05-14T13:37:34.688Z,4.33
2019-05-14T13:39:09.508Z,4.10
2019-05-14T13:40:44.625Z,4.20
2019-05-14T13:42:20.332Z,3.85
2019-05-14T13:43:55.333Z,4.30
2019-05-14T13:45:30.279Z,3.95
2019-05-14T13:47:05.469Z,4.37
2019-05-14T13:48:43.581Z,4.35
2019-05-14T13:50:19.777Z,4.03
2019-05-14T13:51:54.042Z,4.10
2019-05-14T13:53:29.598Z,4.12
2019-05-14T13:55:04.724Z,4.70
2019-05-14T13:56:41.086Z,4.62
2019-05-14T13:58:15.296Z,4.20
2019-05-14T13:59:50.436Z,4.08
2019-05-14T14:01:24.647Z,4.47
2019-05-14T14:02:59.413Z,4.95
2019-05-14T14:04:33.626Z,4.42
2019-05-14T14:06:10.447Z,4.40
2019-05-14T14:07:44.985Z,4.60
2019-05-14T14:09:20.199Z,4.65
2019-05-14T14:10:54.704Z,4.45
2019-05-14T14:12:32.366Z,4.45
2019-05-14T14:14:08.931Z,5.00
2019-05-14T14:15:43.506Z,4.60
2019-05-14T14:17:18.474Z,4.58
2019-05-14T14:18:53.843Z,6.12
2019-05-14T14:20:29.107Z,5.87
2019-05-14T14:22:04.489Z,5.62
2019-05-14T14:23:39.461Z,5.72
2019-05-14T14:25:17.746Z,4.80
2019-05-14T14:26:51.750Z,5.90
2019-05-14T14:28:26.519Z,5.90
2019-05-14T14:30:00.737Z,6.40
2019-05-14T14:31:35.816Z,6.35
2019-05-14T14:33:12.953Z,6.80
2019-05-14T14:34:47.715Z,5.00
2019-05-14T14:36:23.305Z,5.62
2019-05-14T14:37:59.136Z,6.37
2019-05-14T14:39:33.600Z,6.08
2019-05-14T14:41:10.158Z,5.67
2019-05-14T14:42:44.291Z,5.33
2019-05-14T14:44:19.606Z,5.40
2019-05-14T14:45:53.836Z,5.08
2019-05-14T14:47:29.355Z,5.87
2019-05-14T14:49:03.803Z,5.30
2019-05-14T14:50:39.066Z,5.10
2019-05-14T14:52:13.212Z,5.40
2019-05-14T14:53:59.059Z,5.37
2019-05-14T14:55:23.893Z,5.65
2019-05-14T14:56:59.287Z,5.45
2019-05-14T14:58:33.641Z,5.30
2019-05-14T15:00:11.054Z,6.10
2019-05-14T15:13:32.818Z,6.15
2019-05-14T15:15:07.700Z,5.65
2019-05-14T15:16:41.990Z,6.15
2019-05-14T15:18:18.790Z,6.10
2019-05-14T15:19:52.736Z,6.22
2019-05-14T15:21:30.001Z,6.67
2019-05-14T15:23:03.514Z,5.78
2019-05-14T15:24:38.274Z,6.30
2019-05-14T15:26:12.642Z,6.25
2019-05-14T15:27:49.089Z,6.00
2019-05-14T15:29:23.562Z,6.83
2019-05-14T15:30:59.579Z,6.55
2019-05-14T15:32:34.302Z,6.72
2019-05-14T15:34:09.221Z,7.05
2019-05-14T15:35:45.237Z,7.25
2019-05-14T15:37:20.062Z,6.05
2019-05-14T15:38:54.314Z,7.03
2019-05-14T15:40:29.245Z,6.72
2019-05-14T15:42:05.272Z,6.80
2019-05-14T15:43:39.915Z,7.15
2019-05-14T15:45:14.498Z,6.58
2019-05-14T15:46:49.442Z,6.42
2019-05-14T15:48:23.757Z,6.60
2019-05-14T15:49:59.488Z,6.58
2019-05-14T15:51:34.407Z,6.50
2019-05-14T15:53:11.305Z,6.62
2019-05-14T15:54:47.327Z,6.87
2019-05-14T15:56:21.541Z,6.50
2019-05-14T15:57:58.923Z,6.65
2019-05-14T15:59:32.650Z,7.35
2019-05-14T16:01:09.661Z,7.62
2019-05-14T16:02:43.082Z,8.63
2019-05-14T16:04:17.415Z,8.35
2019-05-14T16:05:52.244Z,8.23
2019-05-14T16:07:29.130Z,9.33
2019-05-14T16:09:03.069Z,8.80
2019-05-14T16:10:39.739Z,9.68
2019-05-14T16:12:13.904Z,8.60
2019-05-14T16:13:49.354Z,8.90
2019-05-14T16:15:24.638Z,21.77
2019-05-14T16:16:59.389Z,33.20
2019-05-14T16:18:34.212Z,16.87
2019-05-14T16:20:09.244Z,13.58
2019-05-14T16:21:44.385Z,11.83
2019-05-14T16:23:19.065Z,14.73
2019-05-14T16:24:57.107Z,13.20
2019-05-14T16:26:29.918Z,11.78
2019-05-14T16:28:08.790Z,11.65
2019-05-14T16:29:45.941Z,14.47
2019-05-14T16:31:20.211Z,13.58
2019-05-14T16:32:55.089Z,9.93
2019-05-14T16:34:29.886Z,10.40
2019-05-14T16:36:04.501Z,11.43
2019-05-14T16:37:39.525Z,10.65
2019-05-14T16:39:13.775Z,10.32
2019-05-14T16:40:49.059Z,10.25
2019-05-14T16:42:23.703Z,10.32
2019-05-14T16:43:58.766Z,11.20
2019-05-14T16:45:33.208Z,9.88
2019-05-14T16:47:09.934Z,11.48
2019-05-14T16:48:44.633Z,10.82
2019-05-14T16:50:19.415Z,11.88
2019-05-14T16:51:53.653Z,11.08
2019-05-14T16:53:28.743Z,10.48
2019-05-14T16:55:20.520Z,11.78
2019-05-14T16:56:41.506Z,12.00
2019-05-14T16:58:19.187Z,11.80
2019-05-14T16:59:52.730Z,11.60
2019-05-14T17:01:30.716Z,12.25
2019-05-14T17:03:03.849Z,12.35
2019-05-14T17:04:38.740Z,12.50
2019-05-14T17:06:13.939Z,12.53
2019-05-14T17:07:49.039Z,12.28
2019-05-14T17:09:24.172Z,11.18
2019-05-14T17:10:59.079Z,11.43
2019-05-14T17:12:48.378Z,11.65
2019-05-14T17:14:10.389Z,10.43
2019-05-14T17:15:45.177Z,10.63
2019-05-14T17:17:20.091Z,10.70
2019-05-14T17:18:55.128Z,11.55
2019-05-14T17:20:29.694Z,11.20
2019-05-14T17:22:20.158Z,11.50
2019-05-14T17:23:40.476Z,11.90
2019-05-14T17:25:26.750Z,11.15
2019-05-14T17:26:51.944Z,12.58
2019-05-14T17:28:28.691Z,11.73
2019-05-14T17:30:02.761Z,12.15
2019-05-14T17:31:39.178Z,13.28
2019-05-14T17:33:15.034Z,12.88
2019-05-14T17:34:50.224Z,12.90
2019-05-14T17:36:24.494Z,12.90
2019-05-14T17:37:59.371Z,13.98
2019-05-14T17:39:33.772Z,12.58
2019-05-14T17:41:09.474Z,14.20
2019-05-14T17:42:44.016Z,15.50
2019-05-14T17:44:18.810Z,13.75
2019-05-14T17:45:53.327Z,12.53
2019-05-14T17:47:29.016Z,13.45
2019-05-14T17:49:04.112Z,14.05
2019-05-14T17:50:38.965Z,13.95
2019-05-14T17:52:13.618Z,14.05
2019-05-14T17:53:48.395Z,16.40
2019-05-14T17:55:22.671Z,14.75
2019-05-14T17:56:59.234Z,15.08
2019-05-14T17:58:33.532Z,14.60
2019-05-14T18:00:09.802Z,14.47
2019-05-14T18:01:44.753Z,15.80
2019-05-14T18:03:20.872Z,16.05
2019-05-14T18:04:57.078Z,17.23
2019-05-14T18:06:31.874Z,17.67
2019-05-14T18:08:06.097Z,17.90
2019-05-14T18:09:40.881Z,17.90
2019-05-14T18:11:15.589Z,17.60
2019-05-14T18:12:50.417Z,16.65
2019-05-14T18:14:28.205Z,16.37
2019-05-14T18:16:02.312Z,18.65
2019-05-14T18:17:39.205Z,17.32
2019-05-14T18:19:14.075Z,18.32
2019-05-14T18:20:48.858Z,17.42
2019-05-14T18:22:24.550Z,17.10
2019-05-14T18:23:59.138Z,17.23
2019-05-14T18:25:33.924Z,18.32
2019-05-14T18:27:08.391Z,19.23
2019-05-14T18:28:43.268Z,18.23
2019-05-14T18:30:18.793Z,19.10
2019-05-14T18:31:55.070Z,19.42
2019-05-14T18:33:31.329Z,18.95
2019-05-14T18:35:06.968Z,19.73
2019-05-14T18:36:41.453Z,19.37
2019-05-14T18:38:16.345Z,20.97
2019-05-14T18:39:50.566Z,19.32
2019-05-14T18:41:25.329Z,18.95
2019-05-14T18:42:59.838Z,19.37
2019-05-14T18:44:34.656Z,21.25
2019-05-14T18:46:08.876Z,21.25
2019-05-14T18:47:43.712Z,18.87
2019-05-14T18:49:19.535Z,21.50
2019-05-14T18:50:54.649Z,21.95
2019-05-14T18:52:29.841Z,17.55
2019-05-14T18:54:04.739Z,20.35
2019-05-14T18:55:39.215Z,21.20
2019-05-14T18:57:14.138Z,21.12
2019-05-14T18:58:49.027Z,18.12
2019-05-14T19:00:24.205Z,19.60
2019-05-14T19:01:59.448Z,20.40
2019-05-14T19:03:34.350Z,21.40
2019-05-14T19:05:09.379Z,20.95
2019-05-14T19:06:44.229Z,19.50
2019-05-14T19:08:18.638Z,20.57
2019-05-14T19:09:53.457Z,21.15
2019-05-14T19:11:29.157Z,21.25
2019-05-14T19:13:03.937Z,22.80
2019-05-14T19:14:38.982Z,23.83
2019-05-14T19:16:14.005Z,26.00
2019-05-14T19:17:48.897Z,25.00
2019-05-14T19:19:23.830Z,24.63
2019-05-14T19:20:59.210Z,24.47
2019-05-14T19:22:34.392Z,23.57
2019-05-14T19:24:09.080Z,22.02
2019-05-14T19:25:45.585Z,22.00
2019-05-14T19:27:20.302Z,19.45
2019-05-14T19:28:55.182Z,20.27
2019-05-14T19:30:29.413Z,22.80
2019-05-14T19:32:04.196Z,21.80
2019-05-14T19:33:38.678Z,21.95
2019-05-14T19:35:14.849Z,22.67
2019-05-14T19:36:49.987Z,22.52
2019-05-14T19:38:24.836Z,22.17
2019-05-14T19:39:59.593Z,23.15
2019-05-14T19:41:34.489Z,22.50
2019-05-14T19:43:09.423Z,21.60
2019-05-14T19:44:44.573Z,22.50
2019-05-14T19:46:19.105Z,22.65
2019-05-14T19:47:53.898Z,22.30
2019-05-14T19:49:28.857Z,22.22
2019-05-14T19:51:04.038Z,22.93
2019-05-14T19:52:39.014Z,24.43
2019-05-14T19:54:14.202Z,25.08
2019-05-14T19:55:48.726Z,25.85
2019-05-14T19:57:23.552Z,23.52
2019-05-14T19:58:58.114Z,24.87
2019-05-14T20:00:34.949Z,24.35
2019-05-14T20:02:10.824Z,22.98
2019-05-14T20:03:45.604Z,17.62
2019-05-14T20:05:20.252Z,20.60
2019-05-14T20:06:55.109Z,22.85
2019-05-14T20:08:29.652Z,21.85
2019-05-14T20:10:08.498Z,20.82
2019-05-14T20:11:42.604Z,17.87
2019-05-14T20:13:19.330Z,29.82
2019-05-14T20:14:53.317Z,29.77
2019-05-14T20:16:28.524Z,30.97
2019-05-14T20:18:04.828Z,29.48
2019-05-14T20:19:39.822Z,30.70
2019-05-14T20:21:14.018Z,30.17
2019-05-14T20:22:49.960Z,29.23
2019-05-14T20:24:24.779Z,27.17
2019-05-14T20:25:59.602Z,27.70
2019-05-14T20:27:33.821Z,29.10
2019-05-14T20:29:08.877Z,30.65
2019-05-14T20:30:43.689Z,29.82
2019-05-14T20:32:19.341Z,29.95
2019-05-14T20:33:53.768Z,31.57
2019-05-14T20:35:34.602Z,32.55
2019-05-14T20:37:04.901Z,28.98
2019-05-14T20:38:39.669Z,27.15
2019-05-14T20:40:14.161Z,30.37
2019-05-14T20:41:49.171Z,30.27
2019-05-14T20:43:23.788Z,30.37
2019-05-14T20:44:58.637Z,31.35
2019-05-14T20:46:32.922Z,31.33
2019-05-14T20:48:08.927Z,30.02
2019-05-14T20:49:43.901Z,27.15
2019-05-14T20:51:18.752Z,26.68
2019-05-14T20:52:53.028Z,28.17
2019-05-14T20:54:29.017Z,28.07
2019-05-14T20:56:03.533Z,28.52
2019-05-14T20:57:38.783Z,27.75
2019-05-14T20:59:13.152Z,28.83
2019-05-14T21:00:48.512Z,27.62
2019-05-14T21:02:23.195Z,27.37
2019-05-14T21:03:59.286Z,26.12
2019-05-14T21:05:33.809Z,24.77
2019-05-14T21:07:08.643Z,27.07
2019-05-14T21:08:43.099Z,29.77